createdAt,value
2022-07-29T00:09:11.167Z,53
2022-07-29T00:19:13.291Z,53
2022-07-29T00:29:33.383Z,53
2022-07-29T00:39:17.033Z,54
2022-07-29T00:49:19.338Z,54
2022-07-29T00:59:21.029Z,55
2022-07-29T01:09:34.262Z,55
2022-07-29T01:19:25.886Z,56
2022-07-29T01:39:30.286Z,57
2022-07-29T01:49:32.574Z,57
2022-07-29T01:59:35.085Z,58
2022-07-29T02:09:37.153Z,59
2022-07-29T02:19:38.981Z,59
2022-07-29T02:39:43.926Z,60
2022-07-29T02:49:46.004Z,61
2022-07-29T03:09:50.329Z,62
2022-07-29T03:19:52.292Z,63
2022-07-29T03:29:54.876Z,63
2022-07-29T03:39:56.668Z,63
2022-07-29T03:49:58.820Z,63
2022-07-29T04:00:00.626Z,63
2022-07-29T04:10:02.820Z,63
2022-07-29T04:20:04.734Z,64
2022-07-29T04:30:06.925Z,65
2022-07-29T04:40:08.913Z,64
2022-07-29T04:50:10.616Z,64
2022-07-29T05:00:12.520Z,64
2022-07-29T05:10:14.951Z,63
2022-07-29T05:20:17.082Z,64
2022-07-29T05:30:19.103Z,68
2022-07-29T05:40:21.569Z,72
2022-07-29T06:00:25.929Z,81
2022-07-29T06:10:27.931Z,79
2022-07-29T06:20:30.450Z,78
2022-07-29T06:30:32.135Z,78
2022-07-29T06:40:34.544Z,81
2022-07-29T06:50:37.112Z,82
2022-07-29T07:00:48.996Z,83
2022-07-29T07:10:51.427Z,84
2022-07-29T07:20:53.744Z,83
2022-07-29T07:30:56.212Z,82
2022-07-29T07:40:58.102Z,78
2022-07-29T07:50:59.826Z,77
2022-07-29T08:01:02.156Z,77
2022-07-29T08:11:08.521Z,76
2022-07-29T08:21:06.234Z,76
2022-07-29T08:31:08.414Z,74
2022-07-29T08:41:10.636Z,70
2022-07-29T08:51:12.707Z,72
2022-07-29T09:01:15.105Z,73
2022-07-29T09:21:20.142Z,74
2022-07-29T09:31:22.829Z,70
2022-07-29T09:41:24.783Z,71
2022-07-29T09:51:38.403Z,75
2022-07-29T10:01:29.274Z,71
2022-07-29T10:11:37.838Z,71
2022-07-29T10:21:35.720Z,71
2022-07-29T10:31:36.330Z,76
2022-07-29T10:41:44.173Z,78
2022-07-29T10:51:39.942Z,78
2022-07-29T11:01:48.529Z,80
2022-07-29T11:11:47.763Z,80
2022-07-29T11:21:53.606Z,82
2022-07-29T11:31:49.160Z,83
2022-07-29T11:51:53.454Z,82
2022-07-29T12:02:06.792Z,81
2022-07-29T12:12:00.694Z,78
2022-07-29T12:21:59.895Z,77
2022-07-29T12:32:02.460Z,73
2022-07-29T12:42:05.159Z,75
2022-07-29T12:52:06.689Z,74
2022-07-29T13:02:09.283Z,72
2022-07-29T13:12:11.898Z,70
2022-07-29T13:22:14.421Z,68
2022-07-29T13:32:16.448Z,65
2022-07-29T13:42:18.143Z,63
2022-07-29T13:52:20.394Z,61
2022-07-29T14:02:25.233Z,60
2022-07-29T14:12:24.983Z,58
2022-07-29T14:22:26.996Z,57
2022-07-29T14:32:29.190Z,53
2022-07-29T14:42:31.568Z,53
2022-07-29T14:52:33.782Z,52
2022-07-29T15:02:59.651Z,50
2022-07-29T15:12:38.639Z,50
2022-07-29T15:22:40.953Z,49
2022-07-29T15:32:43.143Z,48
2022-07-29T15:42:45.696Z,48
2022-07-29T15:52:47.578Z,48
2022-07-29T16:02:50.194Z,48
2022-07-29T16:12:52.285Z,47
2022-07-29T16:22:53.971Z,45
2022-07-29T16:32:56.008Z,46
2022-07-29T16:42:57.936Z,47
2022-07-29T16:52:59.758Z,47
2022-07-29T17:03:02.128Z,47
2022-07-29T17:23:05.828Z,47
2022-07-29T17:33:08.027Z,47
2022-07-29T17:43:10.469Z,48
2022-07-29T17:53:15.622Z,48
2022-07-29T18:03:14.798Z,50
2022-07-29T18:23:18.751Z,51
2022-07-29T18:43:22.823Z,52
2022-07-29T18:53:24.508Z,54
2022-07-29T19:03:26.572Z,56
2022-07-29T19:23:30.936Z,58
2022-07-29T19:33:32.806Z,58
2022-07-29T19:43:50.072Z,59
2022-07-29T19:53:37.120Z,61
2022-07-29T20:13:41.921Z,62
2022-07-29T20:23:44.305Z,62
2022-07-29T20:33:46.889Z,64
2022-07-29T20:43:48.718Z,64
2022-07-29T20:53:50.959Z,64
2022-07-29T21:03:53.380Z,68
2022-07-29T21:13:55.351Z,69
2022-07-29T21:23:57.173Z,70
2022-07-29T21:33:59.280Z,71
2022-07-29T21:44:01.404Z,72
2022-07-29T21:54:03.584Z,74
2022-07-29T22:04:05.501Z,77
2022-07-29T22:14:08.005Z,78
2022-07-29T22:24:10.574Z,78
2022-07-29T22:34:12.996Z,79
2022-07-29T22:44:14.765Z,80
2022-07-29T23:04:18.728Z,80
2022-07-29T23:14:21.353Z,79
2022-07-29T23:24:23.205Z,81
2022-07-29T23:34:25.227Z,81
2022-07-29T23:44:26.928Z,81
2022-07-29T23:54:29.479Z,81
